Time;durP1;ratioP1;P1;durP2;ratioP2;P2;SDS_P1;SDS_P2;PMS_P1;PMS_P2;Temp;Humidity;BMP_temperature;BMP_pressure;BME280_temperature;BME280_humidity;BME280_pressure;Samples;Min_cycle;Max_cycle;Signal;HPM_P1;HPM_P2
2021/03/19 00:02:18;;;;;;;104.07;66.93;;;103.20;2227.20;;;;;;4939381;29;20034;-79
2021/03/19 00:04:48;;;;;;;84.13;55.97;;;103.30;2227.20;;;;;;4908071;29;20028;-79
2021/03/19 00:07:16;;;;;;;107.32;66.45;;;128.00;2252.80;;;;;;4941154;29;20029;-78
2021/03/19 00:09:43;;;;;;;114.38;68.78;;;103.20;2227.20;;;;;;4922673;29;20505;-79
2021/03/19 00:12:39;;;;;;;121.40;76.10;;;103.20;2227.20;;;;;;4941469;29;20028;-79
2021/03/19 00:15:22;;;;;;;82.85;52.45;;;103.10;2227.20;;;;;;4938676;29;20017;-80
2021/03/19 00:18:12;;;;;;;83.97;50.92;;;102.50;2227.20;;;;;;4899867;29;20076;-80
2021/03/19 00:21:10;;;;;;;99.25;60.10;;;103.20;2227.20;;;;;;4909847;29;20032;-81
2021/03/19 00:24:25;;;;;;;99.05;59.45;;;102.90;2227.20;;;;;;4939039;29;20035;-80
2021/03/19 00:26:51;;;;;;;101.40;64.80;;;102.80;2227.20;;;;;;4935110;29;20032;-79
2021/03/19 00:29:17;;;;;;;116.32;69.80;;;102.50;2227.20;;;;;;4935411;29;20113;-79
2021/03/19 00:32:08;;;;;;;96.13;60.45;;;77.70;2227.20;;;;;;4939167;29;20032;-80
2021/03/19 00:35:03;;;;;;;114.10;65.95;;;102.60;2227.20;;;;;;4937607;29;20043;-79
2021/03/19 00:37:54;;;;;;;114.35;67.30;;;102.80;2227.20;;;;;;4960380;28;20032;-80
2021/03/19 00:40:24;;;;;;;121.30;71.38;;;128.00;2252.80;;;;;;4945518;28;20019;-80
2021/03/19 00:42:51;;;;;;;111.35;68.10;;;103.10;2227.20;;;;;;4945434;29;20039;-80
2021/03/19 00:48:26;;;;;;;161.57;93.25;;;103.30;2227.20;;;;;;4874984;26;20063;-78
2021/03/19 00:50:55;;;;;;;167.93;94.70;;;103.30;2227.20;;;;;;4959789;28;20130;-77
2021/03/19 00:53:40;;;;;;;152.32;92.75;;;103.30;2227.20;;;;;;4945880;29;20034;-78
2021/03/19 00:56:07;;;;;;;152.93;92.00;;;103.10;2227.20;;;;;;4960386;29;20019;-78
2021/03/19 00:58:34;;;;;;;143.57;84.93;;;103.20;2227.20;;;;;;4946262;29;20035;-79
2021/03/19 01:01:30;;;;;;;123.28;69.25;;;102.80;2227.20;;;;;;4961098;29;20039;-79
2021/03/19 01:07:13;;;;;;;76.53;44.35;;;103.30;2227.20;;;;;;4926572;29;20061;-80
2021/03/19 01:09:55;;;;;;;119.45;64.65;;;128.00;2252.80;;;;;;4904036;29;20036;-79
2021/03/19 01:12:43;;;;;;;148.82;89.72;;;103.30;2227.20;;;;;;4924435;29;20024;-77
2021/03/19 01:50:14;;;;;;;63.55;39.72;;;103.20;2227.20;;;;;;5277976;23;20058;-80
2021/03/19 01:53:32;;;;;;;77.72;47.80;;;103.00;2227.20;;;;;;4977732;28;20082;-80
2021/03/19 02:06:46;;;;;;;57.17;35.72;;;102.90;2227.20;;;;;;4999122;28;20034;-82
2021/03/19 02:27:18;;;;;;;50.60;33.22;;;102.80;2227.20;;;;;;5154296;23;20089;-79
2021/03/19 02:30:22;;;;;;;47.22;28.73;;;102.80;2227.20;;;;;;4989972;28;20042;-80
2021/03/19 02:33:35;;;;;;;54.90;30.17;;;102.80;2227.20;;;;;;4991164;28;20022;-80
2021/03/19 02:36:53;;;;;;;96.78;46.25;;;102.90;2227.20;;;;;;4994438;28;20079;-81
2021/03/19 02:39:58;;;;;;;70.10;36.83;;;102.90;2227.20;;;;;;4961770;28;20052;-79
2021/03/19 02:43:06;;;;;;;65.90;33.58;;;102.40;2227.20;;;;;;4993762;28;20031;-80
2021/03/19 02:46:39;;;;;;;43.55;24.40;;;102.80;2227.20;;;;;;4950276;29;20038;-80
2021/03/19 02:49:52;;;;;;;41.33;26.10;;;102.60;2227.20;;;;;;4898985;29;20119;-80
2021/03/19 03:04:00;;;;;;;60.58;36.80;;;102.60;2227.20;;;;;;4790365;30;20119;-81
2021/03/19 03:07:02;;;;;;;66.65;40.13;;;102.80;2227.20;;;;;;4776237;30;20033;-80
2021/03/19 03:11:00;;;;;;;49.15;31.80;;;102.80;2227.20;;;;;;4772865;30;20023;-81
2021/03/19 03:17:59;;;;;;;49.88;30.50;;;102.60;2227.20;;;;;;4723198;30;20567;-80
2021/03/19 03:21:33;;;;;;;45.80;28.80;;;102.60;2227.20;;;;;;4715282;30;20017;-81
2021/03/19 03:25:00;;;;;;;42.85;26.40;;;102.50;2227.20;;;;;;4675330;30;20038;-81
2021/03/19 03:31:43;;;;;;;72.90;41.50;;;102.50;2227.20;;;;;;4683564;30;20076;-81
2021/03/19 03:34:46;;;;;;;56.88;32.75;;;102.50;2227.20;;;;;;4733475;30;20083;-82
2021/03/19 03:38:06;;;;;;;79.07;41.83;;;102.50;2227.20;;;;;;4740983;30;20021;-80
2021/03/19 03:41:29;;;;;;;55.78;34.70;;;102.50;2227.20;;;;;;4740710;30;20039;-80
2021/03/19 03:48:50;;;;;;;47.70;29.70;;;102.40;2227.20;;;;;;4740452;30;20122;-81
2021/03/19 03:55:52;;;;;;;52.03;33.22;;;77.30;2227.20;;;;;;4709504;30;20041;-81
2021/03/19 04:03:03;;;;;;;139.95;68.65;;;77.40;2227.20;;;;;;4735062;30;20118;-83
2021/03/19 04:13:32;;;;;;;43.97;29.08;;;77.60;2227.20;;;;;;4758131;30;20133;-80
2021/03/19 06:53:30;;;;;;;50.13;31.33;;;102.70;2227.20;;;;;;4724956;30;20021;-82
2021/03/19 07:04:02;;;;;;;40.85;27.63;;;103.10;2227.20;;;;;;4759863;30;20080;-81
2021/03/19 09:20:40;;;;;;;107.07;60.42;;;154.00;2252.80;;;;;;4959427;29;20075;-79
2021/03/19 09:30:52;;;;;;;42.50;28.42;;;179.60;2252.80;;;;;;4959661;29;20559;-81
2021/03/19 09:41:37;;;;;;;35.35;23.95;;;179.40;2252.80;;;;;;4860395;29;20032;-80
2021/03/19 10:33:03;;;;;;;50.15;33.47;;;179.70;2252.80;;;;;;4958940;28;20103;-83
2021/03/19 10:35:35;;;;;;;38.22;27.65;;;179.70;2252.80;;;;;;4925318;29;20131;-84
2021/03/19 10:38:26;;;;;;;51.22;38.95;;;179.70;2252.80;;;;;;4923904;29;20453;-82
2021/03/19 10:41:16;;;;;;;46.08;33.85;;;179.80;2252.80;;;;;;4926676;29;20035;-79
2021/03/19 11:04:25;;;;;;;42.92;33.35;;;230.60;2022.40;;;;;;4975093;28;20090;-87
2021/03/19 11:10:49;;;;;;;31.98;24.35;;;256.00;1894.40;;;;;;4974715;28;20045;-87
2021/03/19 11:13:15;;;;;;;21.15;14.65;;;256.20;1868.80;;;;;;4973627;28;20060;-89
2021/03/19 11:15:47;;;;;;;20.98;15.70;;;231.10;1638.40;;;;;;4957513;28;20027;-88
2021/03/19 11:18:43;;;;;;;25.15;17.60;;;231.10;1740.80;;;;;;4973256;28;20035;-87
2021/03/19 11:21:09;;;;;;;20.42;16.42;;;231.10;1792.00;;;;;;4973297;28;20035;-88
2021/03/19 11:24:18;;;;;;;21.20;15.25;;;231.10;1664.00;;;;;;4957258;28;20093;-89
2021/03/19 11:26:57;;;;;;;20.20;14.18;;;231.30;1612.80;;;;;;4896646;29;20427;-88
2021/03/19 11:29:37;;;;;;;21.10;14.88;;;256.20;1536.00;;;;;;4896277;29;20036;-90
2021/03/19 11:32:25;;;;;;;19.52;13.25;;;256.20;1587.20;;;;;;4945908;28;20039;-86
2021/03/19 11:34:55;;;;;;;27.00;18.27;;;256.20;1536.00;;;;;;4974243;28;20023;-86
2021/03/19 11:37:22;;;;;;;25.23;19.75;;;256.90;1638.40;;;;;;4976516;28;20034;-83
2021/03/19 11:39:55;;;;;;;25.98;22.02;;;282.10;1715.20;;;;;;4960309;28;20396;-90
2021/03/19 11:42:31;;;;;;;18.27;15.60;;;307.30;1612.80;;;;;;4961082;28;20030;-90
2021/03/19 11:45:24;;;;;;;22.77;14.73;;;307.60;1510.40;;;;;;4977106;28;20109;-88
2021/03/19 11:47:53;;;;;;;;;;;307.70;1459.20;;;;;;4969538;28;20038;-90
2021/03/19 11:50:22;;;;;;;17.65;12.38;;;307.90;1433.60;;;;;;4961018;28;19914;-89
2021/03/19 11:52:52;;;;;;;19.30;14.07;;;308.00;1408.00;;;;;;4960678;28;20027;-88
2021/03/19 11:55:33;;;;;;;21.75;17.10;;;307.90;1382.40;;;;;;4977361;28;20031;-88
2021/03/19 11:57:59;;;;;;;22.10;16.13;;;332.90;1459.20;;;;;;4976920;28;20050;-88
2021/03/19 12:00:28;;;;;;;23.88;19.08;;;333.00;1382.40;;;;;;4976926;28;20397;-88
2021/03/19 12:03:01;;;;;;;19.10;13.65;;;333.10;1459.20;;;;;;4976800;28;20065;-85
2021/03/19 12:05:29;;;;;;;25.08;18.67;;;307.20;1382.40;;;;;;4977522;28;20386;-89
2021/03/19 12:07:55;;;;;;;22.58;18.15;;;281.90;1433.60;;;;;;4976191;28;20038;-89
2021/03/19 12:10:27;;;;;;;28.73;20.63;;;281.70;1433.60;;;;;;4976428;28;20365;-88
2021/03/19 12:12:54;;;;;;;33.92;23.75;;;281.70;1561.60;;;;;;4976260;28;20038;-85
2021/03/19 12:15:20;;;;;;;36.65;23.75;;;281.60;1612.80;;;;;;4976338;28;20063;-88
2021/03/19 12:17:46;;;;;;;32.72;24.48;;;281.70;1587.20;;;;;;4976255;28;20033;-83
2021/03/19 12:20:13;;;;;;;36.85;27.25;;;281.80;1587.20;;;;;;4959661;28;20046;-85
2021/03/19 12:22:40;;;;;;;25.77;21.25;;;307.30;1536.00;;;;;;4975977;28;20073;-91
2021/03/19 12:25:13;;;;;;;20.52;16.73;;;307.30;1433.60;;;;;;4976202;28;20540;-85
2021/03/19 12:27:38;;;;;;;20.10;15.32;;;307.30;1356.80;;;;;;4975901;28;20026;-85
2021/03/19 12:30:05;;;;;;;23.42;15.90;;;307.40;1331.20;;;;;;4975850;28;20098;-85
2021/03/19 12:32:31;;;;;;;27.08;20.48;;;307.90;1459.20;;;;;;4975815;28;20035;-86
2021/03/19 12:34:57;;;;;;;28.73;20.02;;;332.90;1510.40;;;;;;4958770;28;20114;-85
2021/03/19 12:37:22;;;;;;;25.00;17.60;;;333.10;1433.60;;;;;;4955485;29;20090;-84
2021/03/19 12:39:48;;;;;;;33.55;23.63;;;333.30;1408.00;;;;;;4940360;29;20385;-85
2021/03/19 12:42:14;;;;;;;24.88;19.70;;;308.10;1484.80;;;;;;4939539;29;20031;-80
2021/03/19 12:44:40;;;;;;;25.55;19.92;;;307.50;1536.00;;;;;;4940575;29;20031;-84
2021/03/19 12:47:06;;;;;;;29.95;21.55;;;307.30;1536.00;;;;;;4939484;29;20421;-88
2021/03/19 12:49:31;;;;;;;39.30;27.65;;;282.50;1510.40;;;;;;4940137;29;20035;-87
2021/03/19 12:51:57;;;;;;;39.50;24.77;;;307.40;1536.00;;;;;;4940251;29;20023;-86
2021/03/19 12:54:23;;;;;;;27.40;20.15;;;282.50;1561.60;;;;;;4943692;28;20390;-87
2021/03/19 12:56:49;;;;;;;29.98;21.48;;;307.20;1612.80;;;;;;4953348;28;20191;-86
2021/03/19 12:59:15;;;;;;;42.17;29.90;;;307.30;1587.20;;;;;;4954376;28;20508;-87
2021/03/19 13:01:41;;;;;;;46.83;30.92;;;282.20;1536.00;;;;;;4958620;28;20488;-89
2021/03/19 13:04:08;;;;;;;30.05;20.83;;;307.20;1536.00;;;;;;4959097;28;20033;-89
2021/03/19 13:06:34;;;;;;;39.35;29.25;;;307.40;1536.00;;;;;;4959241;28;20029;-87
2021/03/19 13:08:59;;;;;;;36.92;25.60;;;307.90;1536.00;;;;;;4959082;28;20039;-88
2021/03/19 13:11:25;;;;;;;33.78;25.13;;;308.10;1536.00;;;;;;4955664;28;20060;-86
2021/03/19 13:13:51;;;;;;;48.10;32.97;;;332.90;1536.00;;;;;;4940199;29;20070;-89
2021/03/19 13:16:17;;;;;;;28.30;19.30;;;333.00;1510.40;;;;;;4939341;29;20031;-88
2021/03/19 13:18:43;;;;;;;28.92;23.10;;;307.80;1408.00;;;;;;4957056;29;20102;-89
2021/03/19 13:21:09;;;;;;;23.65;17.95;;;307.30;1510.40;;;;;;4940041;29;20046;-85
2021/03/19 13:23:35;;;;;;;26.52;19.15;;;282.30;1484.80;;;;;;4939695;29;20059;-87
2021/03/19 13:26:01;;;;;;;28.23;21.35;;;282.00;1536.00;;;;;;4939730;29;20024;-87
2021/03/19 13:28:27;;;;;;;25.55;19.75;;;281.70;1612.80;;;;;;4939669;29;20039;-89
2021/03/19 13:30:56;;;;;;;34.33;24.15;;;281.60;1638.40;;;;;;4939481;29;20433;-89
2021/03/19 13:33:24;;;;;;;38.80;29.02;;;256.90;1587.20;;;;;;4939642;29;20070;-87
2021/03/19 13:35:53;;;;;;;26.38;17.60;;;256.80;1612.80;;;;;;4939712;29;20038;-86
2021/03/19 13:38:21;;;;;;;48.38;30.17;;;256.70;1536.00;;;;;;4939544;29;20034;-87
2021/03/19 13:40:48;;;;;;;48.38;33.65;;;256.60;1612.80;;;;;;4939983;29;20413;-88
2021/03/19 13:43:17;;;;;;;45.67;33.33;;;256.60;1612.80;;;;;;4939507;29;20027;-88
2021/03/19 13:45:43;;;;;;;35.58;25.80;;;256.60;1664.00;;;;;;4939537;29;20027;-87
2021/03/19 13:48:10;;;;;;;27.65;20.92;;;256.60;1561.60;;;;;;4939388;29;20028;-88
2021/03/19 13:50:36;;;;;;;29.63;23.83;;;256.60;1612.80;;;;;;4939457;29;20030;-88
2021/03/19 13:53:02;;;;;;;35.50;24.10;;;256.60;1587.20;;;;;;4939132;29;20465;-88
2021/03/19 13:55:28;;;;;;;31.67;22.23;;;256.80;1484.80;;;;;;4939343;29;20036;-88
2021/03/19 13:57:57;;;;;;;37.92;25.50;;;281.70;1561.60;;;;;;4938500;29;20489;-87
2021/03/19 14:00:32;;;;;;;22.17;15.80;;;282.10;1561.60;;;;;;4940366;29;20054;-88
2021/03/19 14:02:59;;;;;;;20.48;16.42;;;281.60;1433.60;;;;;;4950132;29;20039;-88
2021/03/19 14:05:27;;;;;;;19.85;15.43;;;281.80;1459.20;;;;;;4939326;29;20034;-87
2021/03/19 14:07:54;;;;;;;25.55;17.50;;;256.90;1382.40;;;;;;4938650;29;20034;-87
2021/03/19 14:10:22;;;;;;;24.65;18.98;;;256.90;1382.40;;;;;;4939152;29;20039;-87
2021/03/19 14:12:49;;;;;;;25.85;19.58;;;282.00;1459.20;;;;;;4938940;29;20031;-88
2021/03/19 14:15:17;;;;;;;22.30;17.05;;;307.20;1433.60;;;;;;4939662;29;20038;-86
2021/03/19 14:17:44;;;;;;;27.02;18.33;;;307.40;1433.60;;;;;;4938869;29;20035;-83
2021/03/19 14:20:29;;;;;;;45.78;28.92;;;307.50;1382.40;;;;;;4938423;29;20042;-84
2021/03/19 14:22:55;;;;;;;14.80;11.43;;;307.30;1331.20;;;;;;4954587;29;20067;-89
2021/03/19 14:25:22;;;;;;;17.92;14.02;;;282.40;1356.80;;;;;;4938428;29;20031;-86
2021/03/19 14:27:49;;;;;;;22.95;17.90;;;282.10;1382.40;;;;;;4955554;29;20528;-88
2021/03/19 14:30:18;;;;;;;30.33;21.58;;;282.30;1433.60;;;;;;4939566;29;20130;-88
2021/03/19 14:32:44;;;;;;;30.25;20.55;;;282.20;1382.40;;;;;;4938952;29;20118;-89
2021/03/19 14:35:12;;;;;;;32.78;23.58;;;282.30;1382.40;;;;;;4954973;29;20481;-90
2021/03/19 14:37:39;;;;;;;29.00;17.45;;;307.30;1433.60;;;;;;4939085;29;20031;-91
2021/03/19 14:40:08;;;;;;;21.67;15.52;;;307.40;1331.20;;;;;;4939030;29;20039;-90
2021/03/19 14:42:36;;;;;;;22.50;17.23;;;307.20;1331.20;;;;;;4956673;29;20034;-90
2021/03/19 14:45:04;;;;;;;27.42;20.50;;;307.20;1331.20;;;;;;4956327;29;20104;-90
2021/03/19 14:47:30;;;;;;;50.92;36.28;;;282.40;1356.80;;;;;;4938843;29;20058;-89
2021/03/19 14:49:56;;;;;;;32.70;22.98;;;282.40;1356.80;;;;;;4939054;29;20071;-87
2021/03/19 14:52:22;;;;;;;35.92;23.88;;;282.50;1331.20;;;;;;4938794;29;20496;-89
2021/03/19 14:54:47;;;;;;;29.80;20.17;;;282.50;1331.20;;;;;;4939021;29;20029;-88
2021/03/19 14:57:13;;;;;;;36.08;27.25;;;282.50;1356.80;;;;;;4938966;29;20047;-89
2021/03/19 14:59:39;;;;;;;40.47;27.30;;;282.50;1408.00;;;;;;4939445;29;20450;-90
2021/03/19 15:02:05;;;;;;;46.25;31.27;;;282.50;1433.60;;;;;;4938725;29;20024;-89
2021/03/19 15:04:31;;;;;;;51.15;35.78;;;282.30;1484.80;;;;;;4938689;29;20127;-89
2021/03/19 15:06:57;;;;;;;78.47;44.20;;;282.00;1536.00;;;;;;4938733;29;20035;-89
2021/03/19 15:09:22;;;;;;;54.42;34.97;;;281.80;1561.60;;;;;;4938697;29;20504;-87
2021/03/19 15:11:48;;;;;;;54.47;34.63;;;256.80;1587.20;;;;;;4942232;29;20057;-87
2021/03/19 15:14:14;;;;;;;60.95;34.90;;;256.60;1638.40;;;;;;4941980;29;20031;-88
2021/03/19 15:16:40;;;;;;;72.80;41.95;;;256.40;1587.20;;;;;;4955927;28;20041;-87
2021/03/19 15:19:06;;;;;;;143.25;84.13;;;256.10;1612.80;;;;;;4959993;28;20049;-87
2021/03/19 15:21:32;;;;;;;79.88;57.40;;;256.50;1638.40;;;;;;4959219;28;20034;-86
2021/03/19 15:23:58;;;;;;;83.95;56.60;;;231.20;1638.40;;;;;;4956842;29;20034;-87
2021/03/19 15:26:27;;;;;;;56.60;36.97;;;231.20;1689.60;;;;;;4941327;29;20050;-87
2021/03/19 15:28:53;;;;;;;99.88;74.47;;;231.10;1664.00;;;;;;4940697;29;20127;-87
2021/03/19 15:31:20;;;;;;;66.85;49.42;;;231.00;1664.00;;;;;;4942125;29;20043;-88
2021/03/19 15:33:47;;;;;;;71.93;47.13;;;231.00;1664.00;;;;;;4942295;29;20102;-88
2021/03/19 15:36:15;;;;;;;83.57;55.38;;;230.90;1664.00;;;;;;4941989;29;20034;-88
2021/03/19 15:38:41;;;;;;;75.85;50.63;;;231.00;1664.00;;;;;;4941850;29;20031;-87
2021/03/19 15:41:07;;;;;;;65.82;40.65;;;231.00;1638.40;;;;;;4941618;29;20393;-87
2021/03/19 15:43:34;;;;;;;53.13;37.58;;;230.90;1612.80;;;;;;4941423;29;20038;-86
2021/03/19 15:46:00;;;;;;;58.70;43.72;;;230.90;1664.00;;;;;;4941572;29;20032;-77
2021/03/19 15:48:29;;;;;;;66.93;44.35;;;230.90;1664.00;;;;;;4941510;29;20035;-80
2021/03/19 15:51:02;;;;;;;59.40;40.20;;;230.90;1664.00;;;;;;4941048;29;20034;-83
2021/03/19 15:53:28;;;;;;;62.88;41.20;;;230.70;1638.40;;;;;;4941121;29;20228;-84
2021/03/19 15:55:55;;;;;;;58.65;38.78;;;230.60;1689.60;;;;;;4941337;29;20086;-84
2021/03/19 15:58:22;;;;;;;76.30;46.92;;;230.60;1740.80;;;;;;4941053;29;20055;-81
2021/03/19 16:00:49;;;;;;;71.43;44.08;;;230.60;1689.60;;;;;;4941157;29;20028;-84
2021/03/19 16:03:18;;;;;;;117.90;64.82;;;230.60;1715.20;;;;;;4941137;29;20027;-81
2021/03/19 16:05:45;;;;;;;102.22;59.15;;;230.60;1740.80;;;;;;4940781;29;20077;-85
2021/03/19 16:08:14;;;;;;;101.32;60.88;;;230.60;1740.80;;;;;;4940856;29;20023;-83
2021/03/19 16:10:42;;;;;;;94.03;59.55;;;230.50;1792.00;;;;;;4941620;29;20027;-83
2021/03/19 16:13:09;;;;;;;122.47;77.53;;;230.40;1792.00;;;;;;4940634;29;20401;-79
2021/03/19 16:15:35;;;;;;;106.72;68.22;;;205.70;1792.00;;;;;;4940890;29;20063;-83
2021/03/19 16:18:02;;;;;;;107.82;64.28;;;205.70;1817.60;;;;;;4940459;29;20031;-83
2021/03/19 16:20:32;;;;;;;127.20;78.90;;;205.50;1843.20;;;;;;4940292;28;20388;-82
2021/03/19 16:22:58;;;;;;;124.68;78.90;;;205.50;1894.40;;;;;;4941036;28;20027;-79
2021/03/19 16:25:24;;;;;;;101.93;65.25;;;205.40;1894.40;;;;;;4954598;28;20492;-82
2021/03/19 16:27:52;;;;;;;109.68;67.28;;;205.40;1920.00;;;;;;4951270;28;20054;-78
2021/03/19 16:30:28;;;;;;;109.70;69.88;;;205.20;1971.20;;;;;;4954067;28;20035;-83
2021/03/19 16:32:54;;;;;;;105.80;67.40;;;205.20;1996.80;;;;;;4945531;28;20058;-80
2021/03/19 16:35:24;;;;;;;154.45;82.05;;;205.10;2048.00;;;;;;4948444;28;20023;-82
2021/03/19 16:37:50;;;;;;;138.48;79.95;;;205.10;2048.00;;;;;;4959011;28;20018;-79
2021/03/19 16:40:18;;;;;;;136.82;79.53;;;205.00;2099.20;;;;;;4950182;28;20031;-77
2021/03/19 16:42:44;;;;;;;123.93;75.03;;;205.00;2150.40;;;;;;4957320;28;20019;-78
2021/03/19 16:45:11;;;;;;;122.43;71.30;;;204.80;2150.40;;;;;;4950070;28;20034;-80
2021/03/19 16:47:37;;;;;;;89.32;55.53;;;180.10;2176.00;;;;;;4958984;28;20031;-81
2021/03/19 16:50:08;;;;;;;101.45;61.92;;;180.10;2201.60;;;;;;4958622;28;20037;-80
2021/03/19 16:52:35;;;;;;;94.32;58.65;;;180.10;2201.60;;;;;;4958765;28;20069;-82
2021/03/19 16:55:07;;;;;;;92.13;56.35;;;180.10;2227.20;;;;;;4959029;28;20031;-81
2021/03/19 16:57:33;;;;;;;118.88;63.35;;;180.00;2227.20;;;;;;4958932;28;20047;-79
2021/03/19 16:59:59;;;;;;;117.40;62.53;;;180.00;2252.80;;;;;;4959514;28;20041;-78
2021/03/19 17:02:25;;;;;;;125.40;70.75;;;180.00;2252.80;;;;;;4959505;28;20125;-79
2021/03/19 17:04:51;;;;;;;115.03;64.60;;;179.90;2252.80;;;;;;4959425;28;20062;-79
2021/03/19 17:07:17;;;;;;;105.65;62.20;;;179.90;2252.80;;;;;;4951931;28;20023;-80
2021/03/19 17:09:44;;;;;;;152.48;94.20;;;179.80;2252.80;;;;;;4942308;29;20039;-79
2021/03/19 17:12:10;;;;;;;138.27;91.15;;;179.90;2252.80;;;;;;4952071;28;20397;-82
2021/03/19 17:14:36;;;;;;;100.85;66.53;;;179.90;2252.80;;;;;;4938965;29;20401;-80
2021/03/19 17:17:02;;;;;;;110.53;76.13;;;179.90;2252.80;;;;;;4938927;29;20031;-80
2021/03/19 17:19:27;;;;;;;93.15;63.10;;;179.90;2252.80;;;;;;4940021;29;20035;-79
2021/03/19 17:21:54;;;;;;;95.40;65.75;;;179.80;2252.80;;;;;;4940290;29;20035;-80
2021/03/19 17:24:19;;;;;;;119.00;91.80;;;179.70;2252.80;;;;;;4956933;28;20065;-78
2021/03/19 17:26:47;;;;;;;82.70;63.55;;;179.80;2252.80;;;;;;4959285;28;20054;-79
2021/03/19 17:29:13;;;;;;;86.10;59.33;;;179.80;2252.80;;;;;;4959577;28;20441;-78
2021/03/19 17:31:39;;;;;;;65.10;44.30;;;179.80;2252.80;;;;;;4960346;28;20034;-81
2021/03/19 17:34:05;;;;;;;75.28;50.65;;;179.70;2252.80;;;;;;4960022;28;20457;-77
2021/03/19 17:36:32;;;;;;;83.90;57.08;;;179.70;2252.80;;;;;;4960986;28;20093;-79
2021/03/19 17:38:58;;;;;;;81.43;52.58;;;179.70;2252.80;;;;;;4963119;28;20114;-79
2021/03/19 17:41:25;;;;;;;94.15;59.97;;;179.70;2252.80;;;;;;4963112;28;20054;-79
2021/03/19 17:47:20;;;;;;;64.72;42.28;;;179.70;2252.80;;;;;;4967988;28;20153;-79
2021/03/19 17:49:46;;;;;;;70.35;45.33;;;179.70;2227.20;;;;;;4960580;28;20058;-80
2021/03/19 17:52:12;;;;;;;85.78;57.60;;;179.70;2227.20;;;;;;4960671;28;20034;-82
2021/03/19 17:54:38;;;;;;;113.55;74.65;;;179.70;2252.80;;;;;;4959804;28;20019;-79
2021/03/19 17:57:06;;;;;;;96.15;65.28;;;179.70;2252.80;;;;;;4957444;28;20025;-82
2021/03/19 17:59:32;;;;;;;113.53;70.78;;;179.70;2252.80;;;;;;4958005;28;20467;-80
2021/03/19 18:01:58;;;;;;;93.97;58.53;;;179.60;2252.80;;;;;;4957773;28;20118;-80
2021/03/19 18:04:24;;;;;;;70.28;45.35;;;179.50;2252.80;;;;;;4957512;28;20022;-80
2021/03/19 18:06:50;;;;;;;79.32;52.75;;;179.30;2252.80;;;;;;4957893;28;20058;-80
2021/03/19 18:09:22;;;;;;;74.15;47.97;;;179.30;2252.80;;;;;;4955708;28;20046;-82
2021/03/19 18:11:48;;;;;;;75.18;49.28;;;179.60;2252.80;;;;;;4957302;28;20073;-81
2021/03/19 18:14:15;;;;;;;71.22;49.80;;;179.70;2252.80;;;;;;4956485;28;20046;-84
2021/03/19 18:16:41;;;;;;;76.22;54.05;;;179.80;2252.80;;;;;;4957542;28;20097;-81
2021/03/19 18:19:07;;;;;;;81.45;58.83;;;179.90;2252.80;;;;;;4957176;28;20030;-83
2021/03/19 18:21:40;;;;;;;85.75;60.75;;;179.90;2252.80;;;;;;4974782;28;20035;-83
2021/03/19 18:24:08;;;;;;;76.03;49.42;;;179.60;2252.80;;;;;;4957383;28;20117;-81
2021/03/19 18:26:34;;;;;;;73.43;48.17;;;179.50;2252.80;;;;;;4957425;28;20385;-79
2021/03/19 18:29:02;;;;;;;84.18;55.08;;;179.50;2252.80;;;;;;4957286;28;20062;-84
2021/03/19 18:31:28;;;;;;;72.90;45.20;;;179.60;2252.80;;;;;;4957383;28;20126;-81
2021/03/19 18:33:54;;;;;;;69.35;46.55;;;179.70;2252.80;;;;;;4957448;28;20105;-84
2021/03/19 18:36:22;;;;;;;96.35;66.18;;;179.70;2252.80;;;;;;4957441;28;20026;-78
2021/03/19 18:38:48;;;;;;;108.65;75.25;;;179.80;2252.80;;;;;;4957262;28;20378;-80
2021/03/19 18:41:14;;;;;;;85.82;59.47;;;179.80;2252.80;;;;;;4957536;28;20420;-81
2021/03/19 18:44:27;;;;;;;76.20;52.65;;;179.60;2176.00;;;;;;4958014;28;20030;-84
2021/03/19 18:47:14;;;;;;;83.47;54.33;;;179.50;2252.80;;;;;;4962293;28;20027;-83
2021/03/19 18:50:44;;;;;;;78.63;53.00;;;179.50;2252.80;;;;;;4963412;28;20063;-82
2021/03/19 19:19:24;;;;;;;76.47;54.10;;;179.30;2099.20;;;;;;4906002;29;20048;-81
2021/03/19 19:21:52;;;;;;;76.38;53.58;;;179.30;2201.60;;;;;;4873545;29;20064;-78
2021/03/19 19:24:51;;;;;;;33.17;23.60;;;179.50;2201.60;;;;;;4891327;29;20044;-83
2021/03/19 19:27:33;;;;;;;24.70;17.85;;;179.40;2176.00;;;;;;4919486;29;20410;-82
2021/03/19 19:33:50;;;;;;;65.27;51.53;;;179.30;2201.60;;;;;;4981949;28;20123;-82
2021/03/19 19:40:19;;;;;;;52.45;34.67;;;179.40;2227.20;;;;;;4936135;29;20730;-80
2021/03/19 19:43:52;;;;;;;45.95;34.50;;;179.20;2252.80;;;;;;4856212;29;20038;-81
2021/03/19 19:46:40;;;;;;;41.00;28.77;;;179.20;2252.80;;;;;;4809222;29;20124;-81
2021/03/19 19:49:13;;;;;;;39.05;27.60;;;154.50;2252.80;;;;;;4843331;29;20046;-79
2021/03/19 19:51:44;;;;;;;39.00;27.02;;;154.40;2252.80;;;;;;4846823;29;20086;-79
2021/03/19 19:54:15;;;;;;;47.63;32.67;;;154.30;2252.80;;;;;;4937406;28;20097;-79
2021/03/19 19:56:41;;;;;;;38.35;28.17;;;154.30;2252.80;;;;;;4980367;28;20117;-79
2021/03/19 19:59:08;;;;;;;43.40;30.20;;;154.30;2252.80;;;;;;4979734;28;20047;-78
2021/03/19 20:01:35;;;;;;;41.03;28.33;;;154.40;2252.80;;;;;;4977475;28;20062;-79
2021/03/19 20:04:02;;;;;;;38.92;28.10;;;154.40;2252.80;;;;;;4971999;28;20031;-81
2021/03/19 20:07:01;;;;;;;40.17;29.50;;;154.50;2252.80;;;;;;4989809;28;20094;-80
2021/03/19 20:09:36;;;;;;;34.90;23.20;;;154.40;2252.80;;;;;;4994909;28;20030;-80
2021/03/19 20:12:06;;;;;;;54.40;35.15;;;154.30;2252.80;;;;;;4996426;28;20086;-80
2021/03/19 20:14:39;;;;;;;49.50;32.97;;;154.40;2252.80;;;;;;4977446;28;20023;-80
2021/03/19 20:17:06;;;;;;;43.75;28.73;;;154.50;2252.80;;;;;;4978592;28;20023;-79
2021/03/19 20:19:33;;;;;;;46.05;29.90;;;179.90;2252.80;;;;;;4961740;28;20041;-79
2021/03/19 20:22:05;;;;;;;47.63;33.08;;;154.40;2252.80;;;;;;4982815;28;20035;-79
2021/03/19 20:24:33;;;;;;;33.67;25.50;;;154.40;2252.80;;;;;;4992941;28;20042;-78
2021/03/19 20:26:59;;;;;;;37.75;27.25;;;154.40;2252.80;;;;;;4979273;28;20054;-79
2021/03/19 20:29:30;;;;;;;54.97;37.03;;;154.40;2252.80;;;;;;4996150;28;20023;-79
2021/03/19 20:31:57;;;;;;;51.70;35.67;;;154.50;2252.80;;;;;;4994623;28;20033;-79
2021/03/19 20:34:28;;;;;;;48.38;35.22;;;154.30;2252.80;;;;;;4996256;28;20041;-79
2021/03/19 20:37:05;;;;;;;56.92;41.00;;;154.30;2252.80;;;;;;4992197;28;20054;-79
2021/03/19 20:39:46;;;;;;;40.45;28.17;;;154.30;2252.80;;;;;;5008646;28;20034;-79
2021/03/19 20:42:21;;;;;;;44.15;29.48;;;154.20;2252.80;;;;;;4994520;28;20031;-79
2021/03/19 20:44:51;;;;;;;47.03;32.53;;;154.30;2252.80;;;;;;4991883;28;20027;-78
2021/03/19 20:47:45;;;;;;;42.50;30.35;;;154.10;2252.80;;;;;;4978148;28;20034;-80
2021/03/19 20:50:36;;;;;;;32.33;23.55;;;154.10;2252.80;;;;;;4997368;28;20045;-79
2021/03/19 20:53:04;;;;;;;29.67;22.80;;;154.10;2252.80;;;;;;4969797;28;20032;-79
2021/03/19 20:55:44;;;;;;;34.65;25.33;;;154.10;2252.80;;;;;;4949651;29;20129;-79
2021/03/19 20:58:17;;;;;;;29.38;21.23;;;153.90;2252.80;;;;;;4966725;29;20035;-79
2021/03/19 21:00:57;;;;;;;34.83;25.05;;;153.90;2252.80;;;;;;4951389;29;20062;-80
2021/03/19 21:03:46;;;;;;;38.28;27.88;;;153.80;2252.80;;;;;;4968597;29;20039;-79
2021/03/19 21:07:02;;;;;;;31.92;23.05;;;153.80;2252.80;;;;;;4968096;29;20086;-79
2021/03/19 21:09:39;;;;;;;54.10;34.25;;;153.60;2252.80;;;;;;4951250;29;20039;-79
2021/03/19 21:12:39;;;;;;;64.43;43.88;;;153.70;2252.80;;;;;;4956137;29;20045;-79
2021/03/19 21:15:06;;;;;;;74.97;46.95;;;153.70;2252.80;;;;;;4975475;29;20035;-79
2021/03/19 21:17:49;;;;;;;69.50;43.15;;;153.70;2252.80;;;;;;4959943;29;20024;-79
2021/03/19 21:20:15;;;;;;;64.32;40.45;;;153.60;2252.80;;;;;;4942882;29;20046;-79
2021/03/19 21:22:55;;;;;;;74.40;43.30;;;153.60;2252.80;;;;;;4958904;29;20043;-79
2021/03/19 21:25:54;;;;;;;73.30;42.03;;;153.60;2252.80;;;;;;4964965;28;20047;-79
2021/03/19 21:28:36;;;;;;;75.70;43.25;;;153.60;2252.80;;;;;;4981579;28;20066;-79
2021/03/19 21:31:02;;;;;;;51.08;33.35;;;128.90;2252.80;;;;;;4937277;28;20125;-77